Time;durP1;ratioP1;P1;durP2;ratioP2;P2;SDS_P1;SDS_P2;PMS_P1;PMS_P2;Temp;Humidity;BMP_temperature;BMP_pressure;BME280_temperature;BME280_humidity;BME280_pressure;Samples;Min_cycle;Max_cycle;Signal;HPM_P1;HPM_P2
2022/04/19 00:00:24;;;;;;;84.30;49.70;;;;;;;2.99;72.84;98472.98;105070;1274;61362;-76
2022/04/19 00:03:06;;;;;;;79.10;46.90;;;;;;;3.01;72.79;98472.89;105046;1273;61333;-76
2022/04/19 00:05:34;;;;;;;64.50;42.50;;;;;;;3.00;73.26;98468.71;104973;1274;74774;-74
2022/04/19 00:08:00;;;;;;;65.80;44.00;;;;;;;2.99;73.38;98468.95;105035;1272;70245;-74
2022/04/19 00:10:28;;;;;;;69.90;42.00;;;;;;;2.97;73.25;98467.95;105041;1273;73498;-74
2022/04/19 00:12:56;;;;;;;72.70;44.90;;;;;;;2.98;73.47;98468.11;105009;1274;61317;-75
2022/04/19 00:15:28;;;;;;;103.40;64.00;;;;;;;2.97;73.91;98466.59;105298;1274;61337;-76
2022/04/19 00:17:56;;;;;;;91.80;55.50;;;;;;;2.94;74.12;98468.10;105036;1274;76036;-75
2022/04/19 00:20:24;;;;;;;96.50;57.40;;;;;;;2.93;74.18;98463.08;105017;1274;69407;-75
2022/04/19 00:22:52;;;;;;;97.00;59.00;;;;;;;2.92;74.60;98457.69;105084;1274;74241;-75
2022/04/19 00:25:19;;;;;;;97.80;62.20;;;;;;;2.90;75.07;98463.02;105022;1274;61377;-74
2022/04/19 00:27:45;;;;;;;105.90;63.30;;;;;;;2.89;75.35;98456.59;105047;1274;61298;-74
2022/04/19 00:30:12;;;;;;;106.90;65.00;;;;;;;2.88;75.71;98459.98;105054;1274;75116;-75
2022/04/19 00:32:40;;;;;;;98.80;63.00;;;;;;;2.88;76.01;98457.31;105046;1273;69901;-74
2022/04/19 00:35:09;;;;;;;108.10;65.70;;;;;;;2.91;76.23;98456.14;105135;1273;73352;-75
2022/04/19 00:37:36;;;;;;;114.90;66.20;;;;;;;2.93;76.68;98452.55;105007;1273;61295;-74
2022/04/19 00:40:04;;;;;;;112.90;65.50;;;;;;;2.95;77.01;98452.27;105024;1274;61196;-74
2022/04/19 00:42:32;;;;;;;114.40;66.60;;;;;;;2.98;77.32;98449.69;105046;1274;74326;-73
2022/04/19 00:45:04;;;;;;;104.60;65.70;;;;;;;3.00;77.78;98447.31;105019;1273;69844;-74
2022/04/19 00:47:32;;;;;;;100.20;63.80;;;;;;;3.02;78.17;98447.58;105011;1274;72275;-74
2022/04/19 00:50:03;;;;;;;111.90;68.40;;;;;;;3.03;78.46;98446.11;105195;1274;61283;-74
2022/04/19 00:52:31;;;;;;;120.20;75.10;;;;;;;3.06;78.44;98446.86;105047;1274;62807;-75
2022/04/19 00:54:59;;;;;;;124.40;76.70;;;;;;;3.11;78.30;98446.84;104992;1274;75257;-75
2022/04/19 00:57:26;;;;;;;120.30;75.60;;;;;;;3.16;78.18;98444.47;105050;1274;69872;-75
2022/04/19 00:59:55;;;;;;;123.50;73.60;;;;;;;3.21;78.23;98436.01;105001;1273;74427;-74
2022/04/19 01:02:22;;;;;;;119.40;78.20;;;;;;;3.24;78.58;98426.90;105134;1273;61317;-74
2022/04/19 01:04:49;;;;;;;116.60;75.20;;;;;;;3.24;78.98;98421.13;105028;1274;61447;-75
2022/04/19 01:07:18;;;;;;;118.70;74.80;;;;;;;3.21;79.23;98423.90;105020;1274;75437;-75
2022/04/19 01:09:46;;;;;;;119.20;75.60;;;;;;;3.19;79.52;98426.09;105292;1274;70406;-76
2022/04/19 01:15:05;;;;;;;123.20;79.40;;;;;;;3.24;79.73;98422.86;105053;1274;61381;-75
2022/04/19 01:17:39;;;;;;;122.90;76.70;;;;;;;3.27;79.80;98416.06;105072;1273;62360;-75
2022/04/19 01:20:07;;;;;;;120.70;78.70;;;;;;;3.28;79.80;98409.00;105086;1274;75439;-75
2022/04/19 01:22:38;;;;;;;120.30;77.60;;;;;;;3.29;79.91;98408.04;105369;1273;70235;-75
2022/04/19 01:25:07;;;;;;;115.20;71.20;;;;;;;3.30;80.00;98403.78;105256;1273;73729;-75
2022/04/19 01:27:34;;;;;;;123.10;73.50;;;;;;;3.29;80.01;98404.37;104998;1274;61384;-75
2022/04/19 01:30:08;;;;;;;122.30;75.60;;;;;;;3.28;80.25;98406.71;104983;1273;61293;-75
2022/04/19 01:32:36;;;;;;;108.90;69.50;;;;;;;3.27;80.15;98404.84;105539;1273;75118;-74
2022/04/19 01:35:09;;;;;;;109.90;71.00;;;;;;;3.27;80.06;98405.18;104984;1273;69978;-73
2022/04/19 01:37:38;;;;;;;108.30;67.20;;;;;;;3.28;79.97;98407.21;105200;1273;73155;-75
2022/04/19 01:40:19;;;;;;;100.50;63.10;;;;;;;3.31;79.78;98409.38;105187;1273;61413;-75
2022/04/19 01:42:52;;;;;;;99.10;60.20;;;;;;;3.34;79.46;98414.52;104999;1273;61345;-74
2022/04/19 01:45:24;;;;;;;91.80;56.20;;;;;;;3.37;78.88;98413.66;105338;1273;74618;-75
2022/04/19 01:47:52;;;;;;;92.00;57.70;;;;;;;3.39;78.96;98414.77;104999;1273;70259;-75
2022/04/19 01:50:20;;;;;;;90.60;56.00;;;;;;;3.40;78.93;98410.20;105010;1273;73219;-76
2022/04/19 01:52:49;;;;;;;92.20;60.80;;;;;;;3.41;78.72;98410.83;104991;1273;61316;-75
2022/04/19 01:55:18;;;;;;;97.10;61.70;;;;;;;3.42;78.74;98408.33;104996;1274;61194;-75
2022/04/19 01:57:48;;;;;;;87.90;56.30;;;;;;;3.43;78.89;98406.15;105047;1273;75263;-75
2022/04/19 02:00:52;;;;;;;89.30;54.70;;;;;;;3.43;78.92;98409.52;105084;1273;69377;-74
2022/04/19 02:03:19;;;;;;;97.50;59.30;;;;;;;3.42;78.85;98404.83;104976;1273;73378;-75
2022/04/19 02:05:46;;;;;;;86.40;54.20;;;;;;;3.43;78.88;98402.15;105026;1273;61284;-75
2022/04/19 02:08:12;;;;;;;96.60;57.00;;;;;;;3.44;78.79;98400.86;104992;1273;61315;-74
2022/04/19 02:10:39;;;;;;;107.90;62.10;;;;;;;3.45;78.86;98403.09;104992;1273;75349;-75
2022/04/19 02:13:05;;;;;;;81.50;52.40;;;;;;;3.47;78.95;98402.31;105063;1273;61307;-75
2022/04/19 02:15:32;;;;;;;74.90;48.80;;;;;;;3.47;79.05;98398.95;104934;1273;73361;-76
2022/04/19 02:17:59;;;;;;;71.00;47.10;;;;;;;3.49;78.97;98399.75;104978;1273;61314;-74
2022/04/19 02:20:25;;;;;;;66.70;43.80;;;;;;;3.50;78.94;98401.12;105026;1273;61272;-74
2022/04/19 02:22:52;;;;;;;69.10;46.70;;;;;;;3.51;78.96;98394.37;105000;1273;76198;-75
2022/04/19 02:25:19;;;;;;;66.50;44.20;;;;;;;3.54;78.90;98388.95;105013;1273;61304;-75
2022/04/19 02:27:45;;;;;;;62.50;41.20;;;;;;;3.56;78.88;98387.85;104944;1273;72725;-76
2022/04/19 02:30:14;;;;;;;59.00;38.90;;;;;;;3.54;78.93;98385.81;104910;1274;61298;-74
2022/04/19 02:32:48;;;;;;;63.00;42.80;;;;;;;3.52;78.75;98388.55;105071;1273;61296;-75
2022/04/19 02:35:18;;;;;;;62.70;40.00;;;;;;;3.50;78.45;98382.29;104984;1273;76086;-75
2022/04/19 02:37:49;;;;;;;61.00;38.40;;;;;;;3.52;78.30;98382.56;105001;1273;68472;-76
2022/04/19 02:40:20;;;;;;;51.10;35.50;;;;;;;3.54;78.12;98378.42;105001;1273;73897;-75
2022/04/19 02:42:48;;;;;;;48.50;33.50;;;;;;;3.56;77.90;98378.17;104986;1273;61325;-75
2022/04/19 02:45:16;;;;;;;53.80;36.80;;;;;;;3.57;77.98;98389.36;104968;1273;61906;-76
2022/04/19 02:47:43;;;;;;;50.00;33.10;;;;;;;3.59;77.96;98392.61;105369;1273;74731;-75
2022/04/19 02:50:09;;;;;;;49.00;34.20;;;;;;;3.60;77.37;98392.75;104991;1273;61378;-76
2022/04/19 02:52:36;;;;;;;52.70;35.00;;;;;;;3.61;77.13;98384.28;104939;1273;73430;-75
2022/04/19 02:55:02;;;;;;;50.60;34.10;;;;;;;3.61;77.26;98379.88;104955;1273;61362;-74
2022/04/19 02:57:29;;;;;;;47.90;32.00;;;;;;;3.60;77.34;98380.63;104996;1274;61269;-74
2022/04/19 02:59:55;;;;;;;52.40;34.10;;;;;;;3.60;77.38;98376.23;104974;1273;61292;-74
2022/04/19 03:02:22;;;;;;;46.30;34.10;;;;;;;3.60;77.25;98372.52;104886;1273;61336;-75
2022/04/19 03:04:48;;;;;;;47.90;34.80;;;;;;;3.59;77.14;98365.88;105032;1273;61401;-75
2022/04/19 03:07:15;;;;;;;47.20;34.50;;;;;;;3.60;77.07;98359.35;105013;1273;61404;-74
2022/04/19 03:09:42;;;;;;;50.00;34.80;;;;;;;3.61;77.08;98367.02;104994;1273;61378;-75
2022/04/19 03:12:10;;;;;;;46.10;32.40;;;;;;;3.61;76.92;98366.33;105004;1273;76487;-75
2022/04/19 03:14:37;;;;;;;43.10;30.30;;;;;;;3.62;76.73;98367.84;105107;1273;69176;-76
2022/04/19 03:17:06;;;;;;;41.80;27.80;;;;;;;3.64;76.47;98367.45;104712;1274;72605;-77
2022/04/19 03:19:33;;;;;;;38.70;26.20;;;;;;;3.66;76.07;98365.73;105103;1273;61356;-75
2022/04/19 03:21:59;;;;;;;38.60;26.50;;;;;;;3.68;75.79;98365.64;105000;1273;61283;-75
2022/04/19 03:30:16;;;;;;;34.00;24.70;;;;;;;3.71;75.34;98355.63;104888;1277;73329;-75
2022/04/19 03:32:43;;;;;;;33.10;23.80;;;;;;;3.72;75.35;98357.52;104898;1277;61373;-75
2022/04/19 03:35:13;;;;;;;34.10;23.70;;;;;;;3.72;75.24;98354.20;105335;1277;61167;-75
2022/04/19 03:37:39;;;;;;;32.80;24.60;;;;;;;3.72;75.13;98349.96;104916;1277;76054;-74
2022/04/19 03:40:07;;;;;;;33.50;23.10;;;;;;;3.73;75.00;98354.99;104724;1277;69460;-76
2022/04/19 03:42:34;;;;;;;29.70;20.70;;;;;;;3.73;74.69;98354.83;104729;1277;73266;-75
2022/04/19 03:45:00;;;;;;;31.70;21.00;;;;;;;3.73;74.66;98352.72;104896;1275;61449;-75
2022/04/19 03:47:27;;;;;;;29.00;19.70;;;;;;;3.75;74.47;98353.52;104187;1277;1002951;-75
2022/04/19 03:49:53;;;;;;;33.00;21.40;;;;;;;3.76;74.28;98356.81;104879;1277;61307;-76
2022/04/19 03:52:20;;;;;;;27.20;19.80;;;;;;;3.78;73.88;98356.73;104749;1277;61268;-75
2022/04/19 03:54:46;;;;;;;29.70;20.30;;;;;;;3.80;73.56;98361.17;104934;1277;73435;-75
2022/04/19 03:57:13;;;;;;;33.60;22.70;;;;;;;3.84;73.32;98364.52;104984;1275;61762;-76
2022/04/19 03:59:41;;;;;;;33.30;22.60;;;;;;;3.87;73.24;98361.16;105113;1277;61163;-77
2022/04/19 04:02:08;;;;;;;35.90;23.60;;;;;;;3.91;73.08;98363.95;105288;1277;76034;-75
2022/04/19 04:04:36;;;;;;;33.70;21.60;;;;;;;3.94;73.12;98365.95;105404;1273;61294;-75
2022/04/19 04:07:05;;;;;;;29.20;21.40;;;;;;;3.96;73.50;98362.63;105685;1273;73592;-76
2022/04/19 04:09:32;;;;;;;29.40;21.40;;;;;;;4.00;73.71;98363.20;106528;1273;61330;-74
2022/04/19 04:12:10;;;;;;;32.70;22.30;;;;;;;4.02;73.76;98358.49;108223;1273;60802;-76
2022/04/19 04:14:39;;;;;;;32.20;21.80;;;;;;;4.06;74.05;98356.38;107962;1273;75254;-75
2022/04/19 04:17:06;;;;;;;31.10;22.40;;;;;;;4.09;74.22;98357.45;108053;1273;69286;-76
2022/04/19 04:19:32;;;;;;;34.20;23.30;;;;;;;4.13;74.39;98359.17;107941;1273;70409;-76
2022/04/19 04:21:59;;;;;;;38.80;27.40;;;;;;;4.16;73.92;98365.84;105128;1273;61327;-75
2022/04/19 04:24:26;;;;;;;37.80;26.50;;;;;;;4.22;73.66;98369.78;105155;1273;61327;-76
2022/04/19 04:26:52;;;;;;;35.80;24.30;;;;;;;4.29;73.02;98371.16;105112;1274;75022;-75
2022/04/19 04:29:19;;;;;;;35.60;25.40;;;;;;;4.37;73.01;98368.28;105029;1273;69405;-75
2022/04/19 04:31:46;;;;;;;32.60;22.80;;;;;;;4.46;73.08;98365.77;105154;1273;61278;-75
2022/04/19 04:34:12;;;;;;;33.10;22.70;;;;;;;4.52;72.79;98369.09;105028;1273;61394;-76
2022/04/19 04:36:39;;;;;;;31.50;22.20;;;;;;;4.60;72.44;98370.80;104907;1273;61490;-75
2022/04/19 04:39:05;;;;;;;29.50;20.70;;;;;;;4.68;72.14;98376.39;105016;1273;76578;-75
2022/04/19 04:41:32;;;;;;;32.10;21.80;;;;;;;4.75;71.83;98371.24;104999;1273;69334;-75
2022/04/19 04:43:58;;;;;;;28.60;19.40;;;;;;;4.84;71.94;98367.06;104997;1273;61287;-75
2022/04/19 04:51:55;;;;;;;29.20;18.60;;;;;;;5.08;71.00;98367.52;104969;1273;76289;-76
2022/04/19 04:54:22;;;;;;;27.80;19.00;;;;;;;5.16;70.53;98368.66;105018;1273;69304;-75
2022/04/19 04:56:48;;;;;;;22.90;16.20;;;;;;;5.26;70.57;98365.29;105010;1273;61334;-74
2022/04/19 04:59:15;;;;;;;26.20;16.90;;;;;;;5.36;69.91;98367.05;104993;1273;61406;-74
2022/04/19 05:01:41;;;;;;;22.70;16.00;;;;;;;5.43;69.58;98364.02;104993;1273;61425;-75
2022/04/19 05:04:08;;;;;;;21.90;15.60;;;;;;;5.46;69.02;98360.45;105035;1273;61311;-75
2022/04/19 05:06:34;;;;;;;23.10;15.40;;;;;;;5.50;68.87;98361.16;105043;1273;61279;-75
2022/04/19 05:09:01;;;;;;;22.20;15.10;;;;;;;5.57;68.49;98362.02;105008;1273;73143;-75
2022/04/19 05:11:28;;;;;;;23.30;17.40;;;;;;;5.64;68.33;98359.79;104997;1273;61218;-74
2022/04/19 05:13:55;;;;;;;21.60;15.50;;;;;;;5.76;68.14;98358.77;105032;1273;61204;-75
2022/04/19 05:16:22;;;;;;;24.20;16.90;;;;;;;5.91;67.90;98356.20;104910;1273;75273;-75
2022/04/19 05:18:48;;;;;;;22.70;16.40;;;;;;;6.11;67.69;98360.48;105023;1273;69293;-76
2022/04/19 05:21:15;;;;;;;22.70;16.30;;;;;;;6.32;67.11;98353.27;105024;1273;61350;-76
2022/04/19 05:23:41;;;;;;;24.50;17.00;;;;;;;6.53;66.62;98352.85;104972;1273;61537;-75
2022/04/19 05:26:08;;;;;;;23.80;17.30;;;;;;;6.75;66.19;98351.52;105024;1273;61308;-75
2022/04/19 05:28:34;;;;;;;23.80;17.40;;;;;;;6.96;65.91;98351.09;105014;1273;61289;-76
2022/04/19 05:31:01;;;;;;;22.40;17.40;;;;;;;7.23;65.64;98348.02;105076;1273;61250;-75
2022/04/19 05:33:28;;;;;;;28.50;18.50;;;;;;;7.63;64.99;98346.08;105086;1271;71781;-76
2022/04/19 05:35:55;;;;;;;22.60;16.10;;;;;;;8.06;63.77;98343.08;105062;1273;61404;-75
2022/04/19 05:38:22;;;;;;;24.60;15.90;;;;;;;8.40;62.90;98339.77;105055;1273;61272;-74
2022/04/19 05:40:48;;;;;;;22.50;15.40;;;;;;;8.68;62.10;98339.23;105053;1271;74023;-76
2022/04/19 05:43:15;;;;;;;22.00;15.80;;;;;;;8.88;60.55;98340.85;105053;1271;61350;-74
2022/04/19 05:45:42;;;;;;;24.70;16.70;;;;;;;9.04;60.56;98340.98;105076;1273;61758;-75
2022/04/19 05:48:10;;;;;;;23.30;16.80;;;;;;;9.26;59.88;98342.40;105094;1272;61343;-74
2022/04/19 05:50:37;;;;;;;25.80;17.80;;;;;;;9.60;59.33;98334.80;105096;1273;62287;-75
2022/04/19 05:53:03;;;;;;;25.20;17.00;;;;;;;9.87;58.38;98333.69;105047;1272;76425;-75
2022/04/19 05:55:30;;;;;;;24.50;17.50;;;;;;;10.00;57.43;98331.42;105119;1273;70182;-75
2022/04/19 05:57:56;;;;;;;24.60;17.80;;;;;;;10.19;56.63;98335.34;105005;1273;74494;-75
2022/04/19 06:00:23;;;;;;;21.90;15.30;;;;;;;10.40;56.58;98329.90;104928;1272;61163;-75
2022/04/19 06:05:35;;;;;;;20.80;15.50;;;;;;;11.03;54.41;98324.91;105050;1272;74929;-75
2022/04/19 06:08:01;;;;;;;20.50;16.00;;;;;;;11.16;51.67;98325.83;105098;1273;69129;-74
2022/04/19 06:10:28;;;;;;;18.10;15.10;;;;;;;11.12;51.70;98326.17;105068;1273;73576;-76
2022/04/19 06:12:54;;;;;;;21.30;15.70;;;;;;;11.22;51.76;98326.23;105088;1272;61368;-76
2022/04/19 06:15:21;;;;;;;21.00;16.40;;;;;;;11.43;50.42;98325.13;104895;1273;61306;-75
2022/04/19 06:17:47;;;;;;;19.50;15.40;;;;;;;11.48;49.07;98324.91;105025;1273;61166;-75
2022/04/19 06:20:15;;;;;;;20.40;15.20;;;;;;;11.56;49.95;98320.33;105093;1274;61262;-75
2022/04/19 06:22:42;;;;;;;19.00;15.60;;;;;;;11.78;48.39;98319.94;105040;1273;73979;-76
2022/04/19 06:25:08;;;;;;;18.70;15.10;;;;;;;11.69;46.75;98316.55;104987;1273;61287;-76
2022/04/19 06:27:35;;;;;;;16.20;13.60;;;;;;;11.60;47.30;98320.19;105118;1273;62005;-77
2022/04/19 06:30:06;;;;;;;19.80;13.60;;;;;;;11.69;47.90;98318.41;105056;1273;74925;-76
2022/04/19 06:32:34;;;;;;;18.70;13.60;;;;;;;11.85;46.97;98318.14;105279;1273;68977;-76
2022/04/19 06:35:00;;;;;;;17.50;12.50;;;;;;;11.63;45.81;98324.06;105064;1272;73124;-77
2022/04/19 06:37:29;;;;;;;15.60;12.00;;;;;;;11.51;47.13;98326.93;104923;1274;61304;-75
2022/04/19 06:40:04;;;;;;;15.60;12.40;;;;;;;11.62;46.79;98325.50;105090;1273;61289;-76
2022/04/19 06:42:31;;;;;;;13.90;11.30;;;;;;;11.58;45.99;98325.80;105170;1273;74337;-77
2022/04/19 06:44:58;;;;;;;19.30;14.40;;;;;;;11.53;46.22;98324.29;104956;1273;68175;-77
2022/04/19 06:47:24;;;;;;;20.50;14.70;;;;;;;11.36;45.53;98324.23;105114;1274;74480;-76
2022/04/19 06:49:51;;;;;;;20.50;16.10;;;;;;;11.16;46.11;98320.20;105077;1273;61489;-77
2022/04/19 06:52:18;;;;;;;19.30;15.80;;;;;;;10.79;45.51;98325.42;105034;1271;61354;-76
2022/04/19 06:54:45;;;;;;;22.40;16.90;;;;;;;10.36;46.07;98321.44;105009;1273;75490;-75
2022/04/19 06:57:11;;;;;;;20.00;15.80;;;;;;;10.09;46.56;98325.82;105109;1273;70261;-75
2022/04/19 06:59:38;;;;;;;21.40;15.70;;;;;;;9.84;47.74;98327.70;105122;1274;61333;-76
2022/04/19 07:02:05;;;;;;;21.90;16.00;;;;;;;9.93;48.29;98330.94;105138;1273;61804;-75
2022/04/19 07:04:33;;;;;;;17.30;14.50;;;;;;;9.98;48.55;98329.45;105053;1273;61298;-75
2022/04/19 07:07:01;;;;;;;20.70;14.00;;;;;;;10.04;48.89;98331.13;105153;1272;74664;-75
2022/04/19 07:09:27;;;;;;;15.50;13.60;;;;;;;10.02;48.33;98333.21;104893;1272;69142;-75
2022/04/19 07:11:54;;;;;;;15.50;12.90;;;;;;;9.79;47.80;98337.25;104882;1272;61458;-76
2022/04/19 07:14:20;;;;;;;16.90;13.10;;;;;;;9.57;48.00;98340.84;105299;1273;61318;-74
2022/04/19 07:16:48;;;;;;;17.00;13.50;;;;;;;9.46;48.19;98339.73;105285;1273;61283;-74
2022/04/19 07:19:15;;;;;;;19.90;13.90;;;;;;;9.43;49.04;98341.88;105200;1273;76397;-74
2022/04/19 07:27:14;;;;;;;20.70;15.20;;;;;;;9.25;48.69;98347.83;104879;1273;61372;-75
2022/04/19 07:29:40;;;;;;;17.70;14.20;;;;;;;9.16;48.89;98347.20;105163;1273;61246;-75
2022/04/19 07:32:08;;;;;;;20.30;14.30;;;;;;;9.21;49.34;98345.05;105119;1273;76207;-76
2022/04/19 07:34:34;;;;;;;18.40;14.40;;;;;;;9.29;49.17;98343.24;105145;1273;69186;-75
2022/04/19 07:37:01;;;;;;;17.20;13.10;;;;;;;9.19;49.15;98345.39;105063;1273;61278;-75
2022/04/19 07:39:28;;;;;;;18.30;13.60;;;;;;;9.22;49.54;98346.55;105687;1272;61326;-74
2022/04/19 07:41:55;;;;;;;16.80;12.10;;;;;;;9.44;49.67;98347.49;105134;1273;61391;-75
2022/04/19 07:44:22;;;;;;;15.90;10.80;;;;;;;9.67;49.79;98341.17;105147;1273;75239;-75
2022/04/19 07:46:50;;;;;;;13.30;10.30;;;;;;;9.95;49.76;98336.45;105108;1272;69134;-76
2022/04/19 07:49:17;;;;;;;14.30;8.90;;;;;;;10.33;49.51;98340.17;105153;1273;74893;-74
2022/04/19 07:51:43;;;;;;;11.30;9.30;;;;;;;10.63;49.16;98338.75;104883;1274;61340;-75
2022/04/19 07:54:10;;;;;;;13.10;10.20;;;;;;;10.86;49.04;98337.12;105074;1274;61391;-75
2022/04/19 07:56:36;;;;;;;13.70;10.40;;;;;;;11.07;48.88;98333.71;105079;1273;61160;-75
2022/04/19 07:59:03;;;;;;;10.90;9.40;;;;;;;11.31;48.92;98339.77;105144;1274;61295;-75
2022/04/19 08:01:29;;;;;;;13.40;11.60;;;;;;;11.43;48.45;98340.72;105042;1272;61300;-76
2022/04/19 08:03:56;;;;;;;14.70;11.30;;;;;;;11.69;48.61;98336.36;105109;1273;61298;-75
2022/04/19 08:06:22;;;;;;;13.00;10.60;;;;;;;12.01;48.10;98331.10;105138;1273;61186;-75
2022/04/19 08:08:49;;;;;;;14.40;10.50;;;;;;;12.22;48.14;98329.33;105109;1273;60237;-76
2022/04/19 08:11:15;;;;;;;14.30;11.20;;;;;;;12.26;47.97;98335.49;105112;1273;61311;-75
2022/04/19 08:13:42;;;;;;;15.80;12.00;;;;;;;12.11;47.45;98333.92;105067;1273;61348;-73
2022/04/19 08:16:08;;;;;;;14.90;10.50;;;;;;;11.96;47.79;98338.43;105136;1274;61412;-73
2022/04/19 08:18:35;;;;;;;10.70;9.20;;;;;;;11.78;47.44;98342.23;105103;1274;61275;-73
2022/04/19 08:21:02;;;;;;;10.20;8.90;;;;;;;11.56;47.26;98346.86;105060;1272;76688;-72
2022/04/19 08:23:29;;;;;;;14.30;9.00;;;;;;;11.44;47.45;98350.61;105084;1273;69453;-75
2022/04/19 08:25:55;;;;;;;11.30;9.20;;;;;;;11.32;47.29;98351.61;105067;1273;61375;-74
2022/04/19 08:28:23;;;;;;;10.60;8.50;;;;;;;11.30;47.32;98347.38;105105;1272;61272;-72
2022/04/19 08:30:50;;;;;;;10.30;8.50;;;;;;;11.21;47.04;98352.89;104987;1273;61513;-77
2022/04/19 08:33:17;;;;;;;11.20;8.50;;;;;;;11.10;46.92;98352.52;105071;1272;74243;-76
2022/04/19 08:35:43;;;;;;;9.90;8.70;;;;;;;10.90;45.88;98349.63;105104;1273;61344;-77
2022/04/19 08:38:10;;;;;;;10.70;7.90;;;;;;;10.82;46.97;98349.91;104940;1273;61354;-79
2022/04/19 08:40:36;;;;;;;9.60;7.80;;;;;;;10.94;47.36;98350.71;105036;1273;61340;-77
2022/04/19 08:43:03;;;;;;;9.10;7.30;;;;;;;11.11;47.38;98349.92;105460;1273;61276;-78
2022/04/19 08:45:30;;;;;;;8.90;8.00;;;;;;;11.19;47.21;98350.55;105112;1272;75618;-78
2022/04/19 08:47:58;;;;;;;8.80;7.10;;;;;;;11.27;46.46;98357.53;105086;1273;70699;-78
2022/04/19 08:50:25;;;;;;;8.80;7.20;;;;;;;11.14;46.48;98354.13;105031;1274;72306;-76
2022/04/19 08:58:24;;;;;;;8.20;6.70;;;;;;;10.98;47.69;98356.96;105104;1273;75450;-77
2022/04/19 09:00:51;;;;;;;9.00;7.40;;;;;;;10.98;47.22;98358.04;105103;1273;70121;-77
2022/04/19 09:03:19;;;;;;;8.80;6.30;;;;;;;10.86;47.10;98365.76;105057;1273;74382;-77
2022/04/19 09:05:53;;;;;;;7.30;6.20;;;;;;;10.72;47.05;98368.20;104935;1274;61595;-76
2022/04/19 09:08:20;;;;;;;8.30;6.70;;;;;;;10.67;47.62;98371.67;105082;1273;61145;-77
2022/04/19 09:10:50;;;;;;;7.90;6.70;;;;;;;10.72;47.62;98370.52;105547;1273;75395;-77
2022/04/19 09:13:26;;;;;;;6.90;6.30;;;;;;;10.82;47.78;98372.80;105190;1273;70409;-77
2022/04/19 09:15:54;;;;;;;8.90;5.90;;;;;;;10.91;47.65;98374.38;105071;1274;72612;-78
2022/04/19 09:18:24;;;;;;;7.10;6.40;;;;;;;10.96;47.98;98373.49;105332;1273;61346;-76
2022/04/19 09:20:52;;;;;;;6.40;5.80;;;;;;;11.05;47.90;98377.81;105055;1273;61725;-76
2022/04/19 09:23:19;;;;;;;8.50;6.40;;;;;;;11.17;47.34;98380.38;105082;1273;74844;-77
2022/04/19 09:25:51;;;;;;;8.00;6.70;;;;;;;11.40;47.17;98379.03;105103;1273;69202;-77
2022/04/19 09:28:22;;;;;;;8.50;6.40;;;;;;;11.63;47.03;98373.88;105177;1273;74201;-76
2022/04/19 09:30:52;;;;;;;7.60;6.10;;;;;;;11.78;45.81;98376.31;105113;1273;61311;-76
2022/04/19 09:33:21;;;;;;;6.40;5.80;;;;;;;11.79;46.07;98377.84;105206;1270;61968;-76
2022/04/19 09:35:54;;;;;;;10.30;6.20;;;;;;;12.10;46.34;98374.61;105122;1270;75872;-76
2022/04/19 09:38:37;;;;;;;7.50;5.70;;;;;;;12.61;45.23;98376.38;105273;1271;69208;-78
2022/04/19 09:41:06;;;;;;;6.60;5.90;;;;;;;12.77;44.19;98382.52;105218;1270;73328;-78
2022/04/19 09:43:33;;;;;;;7.20;6.00;;;;;;;12.64;43.40;98380.27;105175;1271;61276;-75
2022/04/19 09:46:03;;;;;;;6.60;5.70;;;;;;;12.59;43.40;98383.01;105222;1271;61272;-75
2022/04/19 09:48:44;;;;;;;;;;;;;;;12.42;43.30;98381.59;105665;1270;75422;-77
2022/04/19 09:51:13;;;;;;;7.50;6.40;;;;;;;12.35;43.99;98379.51;105178;1270;69344;-77
2022/04/19 09:53:41;;;;;;;8.00;7.20;;;;;;;12.25;44.08;98377.15;105295;1270;72623;-76
2022/04/19 09:56:10;;;;;;;7.90;6.60;;;;;;;11.99;44.63;98376.83;105197;1270;61353;-78
2022/04/19 09:58:45;;;;;;;8.40;6.60;;;;;;;11.71;44.59;98381.70;105236;1270;61284;-75
2022/04/19 10:09:38;;;;;;;6.20;5.60;;;;;;;11.50;44.73;98383.27;105166;1270;61380;-75
2022/04/19 10:12:07;;;;;;;10.30;6.40;;;;;;;11.49;45.13;98383.52;105228;1271;61254;-76
2022/04/19 10:14:35;;;;;;;7.50;6.10;;;;;;;11.44;44.74;98383.92;105247;1270;76397;-76
2022/04/19 10:17:05;;;;;;;7.80;7.00;;;;;;;11.29;44.85;98385.42;105232;1271;69517;-77
2022/04/19 10:19:32;;;;;;;6.60;5.90;;;;;;;11.46;45.20;98384.83;105201;1270;73356;-76
2022/04/19 10:22:07;;;;;;;10.00;8.80;;;;;;;11.98;45.49;98384.19;105232;1270;61294;-76
2022/04/19 10:24:52;;;;;;;8.50;7.30;;;;;;;12.55;45.15;98379.95;105329;1271;61907;-76
2022/04/19 10:27:19;;;;;;;7.40;6.00;;;;;;;13.09;45.21;98382.23;105257;1270;76285;-77
2022/04/19 10:29:46;;;;;;;7.20;6.40;;;;;;;13.40;44.20;98381.52;105185;1270;70229;-78
2022/04/19 10:32:13;;;;;;;6.60;5.30;;;;;;;13.32;42.66;98381.48;105262;1271;74657;-76
2022/04/19 10:34:41;;;;;;;7.70;7.00;;;;;;;13.21;43.67;98381.42;105242;1271;61275;-75
2022/04/19 10:37:23;;;;;;;6.70;6.00;;;;;;;13.38;44.01;98377.77;105299;1270;61177;-77
2022/04/19 10:39:52;;;;;;;6.80;6.10;;;;;;;13.80;44.24;98375.30;105519;1270;75520;-77
2022/04/19 10:42:36;;;;;;;9.00;6.00;;;;;;;14.16;43.17;98379.15;105370;1271;69287;-77
2022/04/19 10:45:12;;;;;;;6.80;6.00;;;;;;;14.26;42.67;98376.64;105767;1270;73219;-78
2022/04/19 10:47:51;;;;;;;7.60;6.40;;;;;;;14.06;41.09;98383.99;106454;1271;61277;-76
2022/04/19 10:50:29;;;;;;;8.10;6.50;;;;;;;13.86;41.94;98385.96;106229;1273;60799;-76
2022/04/19 10:53:14;;;;;;;9.30;6.50;;;;;;;13.70;42.10;98388.70;105587;1270;76369;-77
2022/04/19 10:55:50;;;;;;;8.60;6.60;;;;;;;13.43;41.73;98389.99;105215;1270;69396;-75
2022/04/19 10:58:22;;;;;;;7.70;6.90;;;;;;;13.12;41.98;98394.68;105188;1271;73133;-76
2022/04/19 11:01:00;;;;;;;7.00;6.40;;;;;;;12.78;42.14;98402.27;105201;1271;61374;-78
2022/04/19 11:03:29;;;;;;;10.10;7.10;;;;;;;12.30;42.12;98402.72;105205;1271;61372;-75
2022/04/19 11:05:58;;;;;;;10.00;7.50;;;;;;;11.90;43.08;98405.13;105258;1271;75473;-76
2022/04/19 11:08:24;;;;;;;8.50;7.60;;;;;;;11.68;43.62;98410.09;105103;1270;69895;-77
2022/04/19 11:11:04;;;;;;;9.00;8.20;;;;;;;11.38;43.75;98412.65;105191;1270;72250;-76
2022/04/19 11:13:39;;;;;;;9.50;8.30;;;;;;;11.18;43.55;98414.06;105225;1270;61425;-76
2022/04/19 11:16:13;;;;;;;9.50;8.50;;;;;;;10.95;44.09;98415.66;105385;1270;61185;-76
2022/04/19 11:18:39;;;;;;;8.60;7.90;;;;;;;10.82;44.49;98415.27;105207;1270;76138;-75
2022/04/19 11:21:08;;;;;;;10.30;8.50;;;;;;;10.82;44.84;98414.23;105160;1271;61248;-75
2022/04/19 11:23:45;;;;;;;9.10;7.60;;;;;;;10.81;44.53;98416.92;105450;1270;74394;-77
2022/04/19 11:26:30;;;;;;;9.50;8.50;;;;;;;10.78;43.87;98421.44;105161;1270;61289;-76
2022/04/19 11:29:09;;;;;;;9.40;8.50;;;;;;;10.80;44.20;98423.11;105534;1270;61372;-77
2022/04/19 11:31:56;;;;;;;9.20;8.30;;;;;;;10.83;44.13;98420.54;105241;1271;74259;-76
2022/04/19 11:34:23;;;;;;;10.40;8.70;;;;;;;10.82;44.28;98418.70;105004;1271;70240;-77
2022/04/19 11:36:56;;;;;;;9.30;7.90;;;;;;;10.84;44.48;98424.40;105222;1271;74069;-78
2022/04/19 11:48:08;;;;;;;11.70;8.60;;;;;;;11.56;44.90;98414.41;104962;1271;70373;-76
2022/04/19 11:50:35;;;;;;;10.90;9.20;;;;;;;11.66;45.20;98421.48;105190;1271;73261;-76
2022/04/19 11:53:02;;;;;;;10.60;8.80;;;;;;;11.78;45.17;98417.85;105183;1271;61336;-76
2022/04/19 11:55:28;;;;;;;9.10;8.20;;;;;;;11.92;44.49;98419.00;105220;1271;61843;-76
2022/04/19 11:58:06;;;;;;;9.50;8.50;;;;;;;11.87;44.03;98416.89;105201;1271;61195;-77
2022/04/19 12:00:33;;;;;;;9.50;8.10;;;;;;;11.79;44.63;98422.86;105222;1271;69227;-76
2022/04/19 12:03:02;;;;;;;9.30;8.30;;;;;;;11.70;43.99;98432.48;105685;1270;72686;-76
2022/04/19 12:05:30;;;;;;;8.80;7.90;;;;;;;11.47;44.11;98440.39;105904;1270;61195;-77
2022/04/19 12:07:57;;;;;;;9.70;7.60;;;;;;;11.27;44.10;98439.47;105436;1270;61314;-76